aviador You're here:

VOCL Decoded Metar

CALICUT in INDIA
Report Time2017-12-11 00:00:00
UTC Time2017-12-11 00:29:44
Flight Rules ifr IFR
Wind100° at 03 kt
W.Decomp.*RWY 10: 3.0 kt HW 0.1 kt RCW
W.Rank100° ranks 9
Current wind is below 100° avg. (4.1)
Visibility2500 m
Phenomena:Mist
Clouds:N/A
Expected CloudBase > 800 ft AGL from Temp-Dew spread
CeilingNone
Temp24°C (ISA +10)
Dew Point22°C (89% RH)
QNH1011 hPa
Density Alt1,880 ft
Elevation341 ft
Report Wrong Elevation
Raw Report
METAR VOCL 110000Z 10003KT 2500 BR NSC 24/22 Q1011 NOSIG=

Extra information for VOCL:More info

Metar Taf Metar & Taf Last 4 Metars F.Rules Stats Wind Profile Meteogram Temp Stats Airport Information Weather charts Add Link Nearby VenuesMetar ALERT Operation Metar Decoded Social comments